Archival Weather

Chicago O'Hare International

Chicago, Illinois (KORD)

Report from: Monday, January 23, 2023 2:51 PM CST
Current time: Thursday, July 18, 2024 10:03 PM CDT

Current weather – Weather history – Daily summaries
Weather forecast

Temperature-1.7°C (28.9°F)
Wind chill-8.0°C (17.7°F)
Dew point-5.6°C (21.9°F)
Winds 13 kts (6.7 m/s, 15 mph) West-Southwest (250°)
Wind gusts 21 kts (10.8 m/s, 24.2 mph)
Visibility10 mi. (16.1 km)
Clouds Few clouds 1,200 ft. (366 m)
Ceiling: Broken clouds 25,000 ft. (7,620 m)
Altimeter30.06 in.Hg (1018 mB)
Relative humidity75 %
Density altitude-2,171 ft. (-662 m)
Sea-level pressure101.9 kPa (1019 mB, 30.08 in.Hg)
Remarks Automated weather observing station with precipitation discriminator
Pressure falling, then rising
Flight conditions Visual Meteorological Conditions
Raw dataKORD 232051Z 25013G21KT 10SM FEW012 BKN250 M02/M06 A3006 RMK AO2 SLP187 T10171056 55002
An error has occurred. This application may no longer respond until reloaded. Reload 🗙